sensor_id;sensor_type;location;lat;lon;timestamp;P1;durP1;ratioP1;P2;durP2;ratioP2
67889;SDS011;54685;52.082;5.426;2023-04-15T00:01:08;39.50;;;20.83;;
67889;SDS011;54685;52.082;5.426;2023-04-15T00:03:35;37.30;;;20.38;;
67889;SDS011;54685;52.082;5.426;2023-04-15T00:06:02;36.42;;;18.30;;
67889;SDS011;54685;52.082;5.426;2023-04-15T00:08:29;35.08;;;18.67;;
67889;SDS011;54685;52.082;5.426;2023-04-15T00:10:56;29.10;;;16.67;;
67889;SDS011;54685;52.082;5.426;2023-04-15T00:13:27;28.23;;;15.82;;
67889;SDS011;54685;52.082;5.426;2023-04-15T00:15:54;23.58;;;13.80;;
67889;SDS011;54685;52.082;5.426;2023-04-15T00:18:21;18.67;;;11.35;;
67889;SDS011;54685;52.082;5.426;2023-04-15T00:20:48;15.38;;;9.75;;
67889;SDS011;54685;52.082;5.426;2023-04-15T00:23:15;13.77;;;8.60;;
67889;SDS011;54685;52.082;5.426;2023-04-15T00:25:42;14.55;;;8.25;;
67889;SDS011;54685;52.082;5.426;2023-04-15T00:28:09;13.27;;;7.70;;
67889;SDS011;54685;52.082;5.426;2023-04-15T00:30:35;14.68;;;7.07;;
67889;SDS011;54685;52.082;5.426;2023-04-15T00:33:02;15.48;;;7.38;;
67889;SDS011;54685;52.082;5.426;2023-04-15T00:35:29;8.85;;;6.30;;
67889;SDS011;54685;52.082;5.426;2023-04-15T00:37:58;13.30;;;7.07;;
67889;SDS011;54685;52.082;5.426;2023-04-15T00:40:25;9.15;;;6.20;;
67889;SDS011;54685;52.082;5.426;2023-04-15T00:42:52;10.80;;;5.53;;
67889;SDS011;54685;52.082;5.426;2023-04-15T00:45:19;14.70;;;5.95;;
67889;SDS011;54685;52.082;5.426;2023-04-15T00:47:46;10.88;;;5.45;;
67889;SDS011;54685;52.082;5.426;2023-04-15T00:50:13;9.15;;;5.25;;
67889;SDS011;54685;52.082;5.426;2023-04-15T00:52:40;11.52;;;5.50;;
67889;SDS011;54685;52.082;5.426;2023-04-15T00:55:07;9.60;;;4.63;;
67889;SDS011;54685;52.082;5.426;2023-04-15T00:57:35;9.77;;;5.00;;
67889;SDS011;54685;52.082;5.426;2023-04-15T01:00:02;9.50;;;5.53;;
67889;SDS011;54685;52.082;5.426;2023-04-15T01:02:38;10.93;;;5.30;;
67889;SDS011;54685;52.082;5.426;2023-04-15T01:05:06;7.93;;;5.03;;
67889;SDS011;54685;52.082;5.426;2023-04-15T01:07:33;9.50;;;5.10;;
67889;SDS011;54685;52.082;5.426;2023-04-15T01:10:01;10.25;;;4.93;;
67889;SDS011;54685;52.082;5.426;2023-04-15T01:12:31;9.57;;;5.22;;
67889;SDS011;54685;52.082;5.426;2023-04-15T01:14:59;6.72;;;4.90;;
67889;SDS011;54685;52.082;5.426;2023-04-15T01:17:27;8.90;;;5.60;;
67889;SDS011;54685;52.082;5.426;2023-04-15T01:19:55;9.88;;;5.57;;
67889;SDS011;54685;52.082;5.426;2023-04-15T01:22:25;8.45;;;5.53;;
67889;SDS011;54685;52.082;5.426;2023-04-15T01:24:54;10.40;;;5.65;;
67889;SDS011;54685;52.082;5.426;2023-04-15T01:27:28;9.40;;;5.93;;
67889;SDS011;54685;52.082;5.426;2023-04-15T01:29:56;8.85;;;5.25;;
67889;SDS011;54685;52.082;5.426;2023-04-15T01:32:23;11.20;;;5.50;;
67889;SDS011;54685;52.082;5.426;2023-04-15T01:34:50;9.07;;;5.47;;
67889;SDS011;54685;52.082;5.426;2023-04-15T01:37:17;12.10;;;5.28;;
67889;SDS011;54685;52.082;5.426;2023-04-15T01:39:44;10.50;;;5.60;;
67889;SDS011;54685;52.082;5.426;2023-04-15T01:42:11;10.43;;;5.55;;
67889;SDS011;54685;52.082;5.426;2023-04-15T01:44:38;10.25;;;5.18;;
67889;SDS011;54685;52.082;5.426;2023-04-15T01:47:05;6.43;;;5.05;;
67889;SDS011;54685;52.082;5.426;2023-04-15T01:49:32;10.50;;;5.43;;
67889;SDS011;54685;52.082;5.426;2023-04-15T01:51:59;8.63;;;4.97;;
67889;SDS011;54685;52.082;5.426;2023-04-15T01:54:25;14.35;;;5.65;;
67889;SDS011;54685;52.082;5.426;2023-04-15T01:56:52;8.57;;;4.65;;
67889;SDS011;54685;52.082;5.426;2023-04-15T01:59:19;7.13;;;5.03;;
67889;SDS011;54685;52.082;5.426;2023-04-15T02:01:46;10.65;;;5.07;;
67889;SDS011;54685;52.082;5.426;2023-04-15T02:04:13;9.10;;;5.28;;
67889;SDS011;54685;52.082;5.426;2023-04-15T02:06:42;9.80;;;5.68;;
67889;SDS011;54685;52.082;5.426;2023-04-15T02:09:10;10.32;;;5.20;;
67889;SDS011;54685;52.082;5.426;2023-04-15T02:11:37;6.50;;;4.85;;
67889;SDS011;54685;52.082;5.426;2023-04-15T02:14:04;8.85;;;5.13;;
67889;SDS011;54685;52.082;5.426;2023-04-15T02:16:31;7.55;;;5.60;;
67889;SDS011;54685;52.082;5.426;2023-04-15T02:18:59;9.95;;;4.97;;
67889;SDS011;54685;52.082;5.426;2023-04-15T02:21:26;11.20;;;5.70;;
67889;SDS011;54685;52.082;5.426;2023-04-15T02:23:53;8.07;;;5.45;;
67889;SDS011;54685;52.082;5.426;2023-04-15T02:26:20;10.23;;;4.88;;
67889;SDS011;54685;52.082;5.426;2023-04-15T02:28:48;14.32;;;5.55;;
67889;SDS011;54685;52.082;5.426;2023-04-15T02:31:16;14.93;;;5.38;;
67889;SDS011;54685;52.082;5.426;2023-04-15T02:33:43;7.10;;;5.07;;
67889;SDS011;54685;52.082;5.426;2023-04-15T02:36:10;7.75;;;5.20;;
67889;SDS011;54685;52.082;5.426;2023-04-15T02:38:37;12.55;;;6.03;;
67889;SDS011;54685;52.082;5.426;2023-04-15T02:41:10;9.55;;;5.90;;
67889;SDS011;54685;52.082;5.426;2023-04-15T02:43:37;17.20;;;6.07;;
67889;SDS011;54685;52.082;5.426;2023-04-15T02:46:06;15.60;;;6.00;;
67889;SDS011;54685;52.082;5.426;2023-04-15T02:48:33;9.63;;;5.78;;
67889;SDS011;54685;52.082;5.426;2023-04-15T02:51:18;10.23;;;5.38;;
67889;SDS011;54685;52.082;5.426;2023-04-15T02:53:46;10.23;;;5.82;;
67889;SDS011;54685;52.082;5.426;2023-04-15T02:56:14;8.02;;;5.40;;
67889;SDS011;54685;52.082;5.426;2023-04-15T02:58:42;12.82;;;5.82;;
67889;SDS011;54685;52.082;5.426;2023-04-15T03:01:10;6.50;;;5.53;;
67889;SDS011;54685;52.082;5.426;2023-04-15T03:03:38;8.65;;;5.05;;
67889;SDS011;54685;52.082;5.426;2023-04-15T03:06:05;13.50;;;5.38;;
67889;SDS011;54685;52.082;5.426;2023-04-15T03:08:33;10.52;;;5.65;;
67889;SDS011;54685;52.082;5.426;2023-04-15T03:10:59;9.75;;;5.45;;
67889;SDS011;54685;52.082;5.426;2023-04-15T03:13:27;8.80;;;5.30;;
67889;SDS011;54685;52.082;5.426;2023-04-15T03:15:56;11.93;;;6.47;;
67889;SDS011;54685;52.082;5.426;2023-04-15T03:18:23;10.45;;;5.60;;
67889;SDS011;54685;52.082;5.426;2023-04-15T03:20:49;10.18;;;5.30;;
67889;SDS011;54685;52.082;5.426;2023-04-15T03:23:17;9.50;;;6.25;;
67889;SDS011;54685;52.082;5.426;2023-04-15T03:25:44;10.93;;;5.78;;
67889;SDS011;54685;52.082;5.426;2023-04-15T03:28:11;7.80;;;6.07;;
67889;SDS011;54685;52.082;5.426;2023-04-15T03:30:38;11.50;;;6.72;;
67889;SDS011;54685;52.082;5.426;2023-04-15T03:33:05;12.45;;;6.43;;
67889;SDS011;54685;52.082;5.426;2023-04-15T03:35:32;15.20;;;6.20;;
67889;SDS011;54685;52.082;5.426;2023-04-15T03:37:59;9.13;;;6.05;;
67889;SDS011;54685;52.082;5.426;2023-04-15T03:40:26;10.50;;;6.72;;
67889;SDS011;54685;52.082;5.426;2023-04-15T03:42:52;10.02;;;6.13;;
67889;SDS011;54685;52.082;5.426;2023-04-15T03:45:19;6.78;;;5.78;;
67889;SDS011;54685;52.082;5.426;2023-04-15T03:47:46;12.32;;;6.00;;
67889;SDS011;54685;52.082;5.426;2023-04-15T03:50:13;9.25;;;6.18;;
67889;SDS011;54685;52.082;5.426;2023-04-15T03:52:40;9.43;;;6.15;;
67889;SDS011;54685;52.082;5.426;2023-04-15T03:55:06;8.32;;;5.75;;
67889;SDS011;54685;52.082;5.426;2023-04-15T03:57:34;9.80;;;6.05;;
67889;SDS011;54685;52.082;5.426;2023-04-15T04:00:04;10.50;;;6.82;;
67889;SDS011;54685;52.082;5.426;2023-04-15T04:02:37;9.00;;;5.93;;
67889;SDS011;54685;52.082;5.426;2023-04-15T04:05:04;10.02;;;5.70;;
67889;SDS011;54685;52.082;5.426;2023-04-15T04:07:31;9.50;;;6.07;;
67889;SDS011;54685;52.082;5.426;2023-04-15T04:09:58;8.55;;;5.47;;
67889;SDS011;54685;52.082;5.426;2023-04-15T04:12:24;9.60;;;5.88;;
67889;SDS011;54685;52.082;5.426;2023-04-15T04:14:51;8.48;;;5.80;;
67889;SDS011;54685;52.082;5.426;2023-04-15T04:17:18;9.38;;;6.20;;
67889;SDS011;54685;52.082;5.426;2023-04-15T04:19:48;8.48;;;5.88;;
67889;SDS011;54685;52.082;5.426;2023-04-15T04:22:15;9.00;;;5.97;;
67889;SDS011;54685;52.082;5.426;2023-04-15T04:24:42;8.98;;;5.78;;
67889;SDS011;54685;52.082;5.426;2023-04-15T04:27:08;8.98;;;5.93;;
67889;SDS011;54685;52.082;5.426;2023-04-15T04:29:35;13.95;;;5.40;;
67889;SDS011;54685;52.082;5.426;2023-04-15T04:32:02;8.73;;;6.15;;
67889;SDS011;54685;52.082;5.426;2023-04-15T04:34:29;9.32;;;6.35;;
67889;SDS011;54685;52.082;5.426;2023-04-15T04:36:57;9.27;;;6.25;;
67889;SDS011;54685;52.082;5.426;2023-04-15T04:39:24;7.53;;;5.75;;
67889;SDS011;54685;52.082;5.426;2023-04-15T04:41:51;8.68;;;6.20;;
67889;SDS011;54685;52.082;5.426;2023-04-15T04:44:17;7.95;;;5.68;;
67889;SDS011;54685;52.082;5.426;2023-04-15T04:46:44;9.45;;;5.63;;
67889;SDS011;54685;52.082;5.426;2023-04-15T04:49:11;9.95;;;5.95;;
67889;SDS011;54685;52.082;5.426;2023-04-15T04:51:38;10.70;;;5.75;;
67889;SDS011;54685;52.082;5.426;2023-04-15T04:54:04;10.65;;;6.30;;
67889;SDS011;54685;52.082;5.426;2023-04-15T04:56:31;8.82;;;5.80;;
67889;SDS011;54685;52.082;5.426;2023-04-15T04:58:59;12.27;;;6.03;;
67889;SDS011;54685;52.082;5.426;2023-04-15T05:01:26;10.68;;;6.03;;
67889;SDS011;54685;52.082;5.426;2023-04-15T05:03:54;11.05;;;5.97;;
67889;SDS011;54685;52.082;5.426;2023-04-15T05:06:21;9.05;;;6.53;;
67889;SDS011;54685;52.082;5.426;2023-04-15T05:08:48;7.78;;;6.40;;
67889;SDS011;54685;52.082;5.426;2023-04-15T05:11:14;10.23;;;6.68;;
67889;SDS011;54685;52.082;5.426;2023-04-15T05:13:41;11.50;;;6.82;;
67889;SDS011;54685;52.082;5.426;2023-04-15T05:16:08;9.63;;;7.00;;
67889;SDS011;54685;52.082;5.426;2023-04-15T05:18:35;9.07;;;6.32;;
67889;SDS011;54685;52.082;5.426;2023-04-15T05:21:02;10.35;;;6.45;;
67889;SDS011;54685;52.082;5.426;2023-04-15T05:23:28;13.13;;;7.57;;
67889;SDS011;54685;52.082;5.426;2023-04-15T05:25:56;11.30;;;6.65;;
67889;SDS011;54685;52.082;5.426;2023-04-15T05:28:23;12.85;;;7.10;;
67889;SDS011;54685;52.082;5.426;2023-04-15T05:30:50;13.32;;;7.03;;
67889;SDS011;54685;52.082;5.426;2023-04-15T05:33:17;8.30;;;6.78;;
67889;SDS011;54685;52.082;5.426;2023-04-15T05:35:44;10.23;;;6.97;;
67889;SDS011;54685;52.082;5.426;2023-04-15T05:38:11;9.52;;;6.47;;
67889;SDS011;54685;52.082;5.426;2023-04-15T05:40:38;9.35;;;6.85;;
67889;SDS011;54685;52.082;5.426;2023-04-15T05:43:05;10.82;;;7.03;;
67889;SDS011;54685;52.082;5.426;2023-04-15T05:45:33;9.88;;;6.80;;
67889;SDS011;54685;52.082;5.426;2023-04-15T05:48:00;9.85;;;6.75;;
67889;SDS011;54685;52.082;5.426;2023-04-15T05:50:26;9.82;;;6.82;;
67889;SDS011;54685;52.082;5.426;2023-04-15T05:52:53;9.13;;;6.38;;
67889;SDS011;54685;52.082;5.426;2023-04-15T05:55:21;9.02;;;6.93;;
67889;SDS011;54685;52.082;5.426;2023-04-15T05:57:48;9.27;;;6.93;;
67889;SDS011;54685;52.082;5.426;2023-04-15T06:00:14;11.38;;;6.88;;
67889;SDS011;54685;52.082;5.426;2023-04-15T06:02:41;13.38;;;7.53;;
67889;SDS011;54685;52.082;5.426;2023-04-15T06:05:08;7.57;;;6.78;;
67889;SDS011;54685;52.082;5.426;2023-04-15T06:07:37;9.32;;;6.68;;
67889;SDS011;54685;52.082;5.426;2023-04-15T06:10:04;10.85;;;7.60;;
67889;SDS011;54685;52.082;5.426;2023-04-15T06:12:31;9.73;;;7.10;;
67889;SDS011;54685;52.082;5.426;2023-04-15T06:14:58;9.10;;;6.97;;
67889;SDS011;54685;52.082;5.426;2023-04-15T06:17:25;9.70;;;7.03;;
67889;SDS011;54685;52.082;5.426;2023-04-15T06:19:52;12.02;;;7.43;;
67889;SDS011;54685;52.082;5.426;2023-04-15T06:22:21;14.38;;;7.93;;
67889;SDS011;54685;52.082;5.426;2023-04-15T06:24:49;10.07;;;8.02;;
67889;SDS011;54685;52.082;5.426;2023-04-15T06:27:17;13.27;;;8.23;;
67889;SDS011;54685;52.082;5.426;2023-04-15T06:29:44;9.93;;;7.22;;
67889;SDS011;54685;52.082;5.426;2023-04-15T06:32:14;11.40;;;7.75;;
67889;SDS011;54685;52.082;5.426;2023-04-15T06:34:41;11.52;;;8.52;;
67889;SDS011;54685;52.082;5.426;2023-04-15T06:37:08;10.80;;;7.82;;
67889;SDS011;54685;52.082;5.426;2023-04-15T06:39:36;15.82;;;7.78;;
67889;SDS011;54685;52.082;5.426;2023-04-15T06:42:03;10.63;;;7.88;;
67889;SDS011;54685;52.082;5.426;2023-04-15T06:44:30;10.95;;;8.55;;
67889;SDS011;54685;52.082;5.426;2023-04-15T06:46:59;11.43;;;8.35;;
67889;SDS011;54685;52.082;5.426;2023-04-15T06:49:26;9.93;;;7.93;;
67889;SDS011;54685;52.082;5.426;2023-04-15T06:51:53;10.68;;;8.15;;
67889;SDS011;54685;52.082;5.426;2023-04-15T06:54:19;11.52;;;8.48;;
67889;SDS011;54685;52.082;5.426;2023-04-15T06:56:46;12.73;;;8.95;;
67889;SDS011;54685;52.082;5.426;2023-04-15T06:59:13;19.45;;;9.70;;
67889;SDS011;54685;52.082;5.426;2023-04-15T07:01:40;12.90;;;9.80;;
67889;SDS011;54685;52.082;5.426;2023-04-15T07:04:27;14.05;;;10.38;;
67889;SDS011;54685;52.082;5.426;2023-04-15T07:06:54;10.77;;;9.15;;
67889;SDS011;54685;52.082;5.426;2023-04-15T07:09:23;12.43;;;9.15;;
67889;SDS011;54685;52.082;5.426;2023-04-15T07:11:50;13.38;;;9.40;;
67889;SDS011;54685;52.082;5.426;2023-04-15T07:14:17;13.25;;;9.77;;
67889;SDS011;54685;52.082;5.426;2023-04-15T07:16:44;15.93;;;9.95;;
67889;SDS011;54685;52.082;5.426;2023-04-15T07:19:11;14.48;;;9.30;;
67889;SDS011;54685;52.082;5.426;2023-04-15T07:21:38;12.25;;;9.38;;
67889;SDS011;54685;52.082;5.426;2023-04-15T07:24:07;13.93;;;9.52;;
67889;SDS011;54685;52.082;5.426;2023-04-15T07:26:35;12.15;;;9.52;;
67889;SDS011;54685;52.082;5.426;2023-04-15T07:29:02;11.35;;;9.75;;
67889;SDS011;54685;52.082;5.426;2023-04-15T07:31:29;14.90;;;9.57;;
67889;SDS011;54685;52.082;5.426;2023-04-15T07:33:56;13.35;;;9.32;;
67889;SDS011;54685;52.082;5.426;2023-04-15T07:36:23;13.88;;;9.77;;
67889;SDS011;54685;52.082;5.426;2023-04-15T07:38:50;12.90;;;9.35;;
67889;SDS011;54685;52.082;5.426;2023-04-15T07:41:17;14.98;;;9.70;;
67889;SDS011;54685;52.082;5.426;2023-04-15T07:43:44;9.57;;;8.57;;
67889;SDS011;54685;52.082;5.426;2023-04-15T07:46:11;13.27;;;9.10;;
67889;SDS011;54685;52.082;5.426;2023-04-15T07:48:37;12.73;;;8.73;;
67889;SDS011;54685;52.082;5.426;2023-04-15T07:51:05;12.23;;;8.50;;
67889;SDS011;54685;52.082;5.426;2023-04-15T07:53:31;23.50;;;9.45;;
67889;SDS011;54685;52.082;5.426;2023-04-15T07:55:58;11.45;;;8.45;;
67889;SDS011;54685;52.082;5.426;2023-04-15T07:58:25;9.88;;;7.72;;
67889;SDS011;54685;52.082;5.426;2023-04-15T08:00:54;10.85;;;7.80;;
67889;SDS011;54685;52.082;5.426;2023-04-15T08:03:29;10.45;;;7.53;;
67889;SDS011;54685;52.082;5.426;2023-04-15T08:05:57;10.05;;;7.05;;
67889;SDS011;54685;52.082;5.426;2023-04-15T08:08:24;8.25;;;6.50;;
67889;SDS011;54685;52.082;5.426;2023-04-15T08:10:51;8.65;;;7.03;;
67889;SDS011;54685;52.082;5.426;2023-04-15T08:13:21;8.10;;;6.00;;
67889;SDS011;54685;52.082;5.426;2023-04-15T08:15:52;6.82;;;5.80;;
67889;SDS011;54685;52.082;5.426;2023-04-15T08:18:39;9.57;;;6.05;;
67889;SDS011;54685;52.082;5.426;2023-04-15T08:21:09;7.55;;;5.72;;
67889;SDS011;54685;52.082;5.426;2023-04-15T08:23:37;8.88;;;5.57;;
67889;SDS011;54685;52.082;5.426;2023-04-15T08:26:04;5.90;;;5.22;;
67889;SDS011;54685;52.082;5.426;2023-04-15T08:28:31;10.95;;;5.70;;
67889;SDS011;54685;52.082;5.426;2023-04-15T08:30:58;7.05;;;5.38;;
67889;SDS011;54685;52.082;5.426;2023-04-15T08:33:25;5.75;;;4.65;;
67889;SDS011;54685;52.082;5.426;2023-04-15T08:35:51;6.63;;;4.93;;
67889;SDS011;54685;52.082;5.426;2023-04-15T08:38:18;5.00;;;4.50;;
67889;SDS011;54685;52.082;5.426;2023-04-15T08:40:45;9.63;;;4.47;;
67889;SDS011;54685;52.082;5.426;2023-04-15T08:43:14;5.72;;;4.15;;
67889;SDS011;54685;52.082;5.426;2023-04-15T08:45:47;5.03;;;3.88;;
67889;SDS011;54685;52.082;5.426;2023-04-15T08:48:17;5.38;;;3.60;;
67889;SDS011;54685;52.082;5.426;2023-04-15T08:50:44;6.68;;;3.97;;
67889;SDS011;54685;52.082;5.426;2023-04-15T08:53:13;5.38;;;3.60;;
67889;SDS011;54685;52.082;5.426;2023-04-15T08:55:44;3.92;;;3.10;;
67889;SDS011;54685;52.082;5.426;2023-04-15T08:58:12;4.88;;;3.20;;
67889;SDS011;54685;52.082;5.426;2023-04-15T09:00:39;5.07;;;3.30;;
67889;SDS011;54685;52.082;5.426;2023-04-15T09:03:07;5.63;;;3.70;;
67889;SDS011;54685;52.082;5.426;2023-04-15T09:05:35;5.18;;;3.50;;
67889;SDS011;54685;52.082;5.426;2023-04-15T09:08:02;4.80;;;3.05;;
67889;SDS011;54685;52.082;5.426;2023-04-15T09:10:33;5.40;;;4.13;;
67889;SDS011;54685;52.082;5.426;2023-04-15T09:13:00;5.35;;;4.00;;
67889;SDS011;54685;52.082;5.426;2023-04-15T09:15:27;5.20;;;4.13;;
67889;SDS011;54685;52.082;5.426;2023-04-15T09:17:57;6.78;;;4.40;;
67889;SDS011;54685;52.082;5.426;2023-04-15T09:20:24;5.90;;;4.30;;
67889;SDS011;54685;52.082;5.426;2023-04-15T09:22:50;8.15;;;4.30;;
67889;SDS011;54685;52.082;5.426;2023-04-15T09:27:50;5.28;;;4.30;;
67889;SDS011;54685;52.082;5.426;2023-04-15T09:30:18;5.28;;;4.28;;
67889;SDS011;54685;52.082;5.426;2023-04-15T09:35:22;6.90;;;4.60;;
67889;SDS011;54685;52.082;5.426;2023-04-15T09:37:51;6.57;;;4.57;;
67889;SDS011;54685;52.082;5.426;2023-04-15T09:40:34;5.75;;;3.97;;
67889;SDS011;54685;52.082;5.426;2023-04-15T09:43:08;5.45;;;3.65;;
67889;SDS011;54685;52.082;5.426;2023-04-15T09:45:38;6.43;;;4.40;;
67889;SDS011;54685;52.082;5.426;2023-04-15T09:48:22;5.63;;;3.80;;
67889;SDS011;54685;52.082;5.426;2023-04-15T09:50:51;6.10;;;3.60;;
67889;SDS011;54685;52.082;5.426;2023-04-15T09:53:19;3.78;;;3.35;;
67889;SDS011;54685;52.082;5.426;2023-04-15T09:55:51;3.72;;;3.10;;
67889;SDS011;54685;52.082;5.426;2023-04-15T09:58:20;4.03;;;3.33;;
67889;SDS011;54685;52.082;5.426;2023-04-15T10:00:49;4.50;;;3.33;;
67889;SDS011;54685;52.082;5.426;2023-04-15T10:03:24;5.05;;;3.92;;
67889;SDS011;54685;52.082;5.426;2023-04-15T10:05:53;7.45;;;4.38;;
67889;SDS011;54685;52.082;5.426;2023-04-15T10:08:22;5.97;;;4.15;;
67889;SDS011;54685;52.082;5.426;2023-04-15T10:10:51;5.32;;;3.35;;
67889;SDS011;54685;52.082;5.426;2023-04-15T10:13:19;5.88;;;3.72;;
67889;SDS011;54685;52.082;5.426;2023-04-15T10:15:51;5.03;;;3.08;;
67889;SDS011;54685;52.082;5.426;2023-04-15T10:18:28;3.45;;;3.03;;
67889;SDS011;54685;52.082;5.426;2023-04-15T10:20:59;3.78;;;3.38;;
67889;SDS011;54685;52.082;5.426;2023-04-15T10:23:47;5.35;;;3.28;;
67889;SDS011;54685;52.082;5.426;2023-04-15T10:26:30;4.70;;;2.65;;
67889;SDS011;54685;52.082;5.426;2023-04-15T10:29:01;5.53;;;2.50;;
67889;SDS011;54685;52.082;5.426;2023-04-15T10:31:30;7.97;;;2.70;;
67889;SDS011;54685;52.082;5.426;2023-04-15T10:33:57;3.33;;;2.65;;
67889;SDS011;54685;52.082;5.426;2023-04-15T10:36:29;3.05;;;2.75;;
67889;SDS011;54685;52.082;5.426;2023-04-15T10:38:56;4.07;;;2.70;;
67889;SDS011;54685;52.082;5.426;2023-04-15T10:41:24;4.03;;;2.75;;
67889;SDS011;54685;52.082;5.426;2023-04-15T10:44:01;4.78;;;2.67;;
67889;SDS011;54685;52.082;5.426;2023-04-15T10:46:40;3.35;;;2.53;;
67889;SDS011;54685;52.082;5.426;2023-04-15T10:49:10;5.07;;;2.90;;
67889;SDS011;54685;52.082;5.426;2023-04-15T10:51:44;3.97;;;2.72;;
67889;SDS011;54685;52.082;5.426;2023-04-15T10:54:29;4.45;;;2.50;;
67889;SDS011;54685;52.082;5.426;2023-04-15T10:59:31;2.83;;;2.50;;
67889;SDS011;54685;52.082;5.426;2023-04-15T11:07:37;4.65;;;2.42;;
67889;SDS011;54685;52.082;5.426;2023-04-15T11:12:43;2.50;;;2.30;;
67889;SDS011;54685;52.082;5.426;2023-04-15T11:18:08;3.53;;;2.03;;
67889;SDS011;54685;52.082;5.426;2023-04-15T11:20:40;3.85;;;2.30;;
67889;SDS011;54685;52.082;5.426;2023-04-15T11:23:13;2.35;;;1.92;;
67889;SDS011;54685;52.082;5.426;2023-04-15T11:25:41;2.40;;;2.20;;
67889;SDS011;54685;52.082;5.426;2023-04-15T11:28:09;2.47;;;1.95;;
67889;SDS011;54685;52.082;5.426;2023-04-15T11:30:37;3.08;;;2.25;;
67889;SDS011;54685;52.082;5.426;2023-04-15T11:33:06;3.28;;;1.90;;
67889;SDS011;54685;52.082;5.426;2023-04-15T11:35:34;7.80;;;1.65;;
67889;SDS011;54685;52.082;5.426;2023-04-15T11:38:02;2.80;;;1.77;;
67889;SDS011;54685;52.082;5.426;2023-04-15T11:40:40;1.98;;;1.88;;
67889;SDS011;54685;52.082;5.426;2023-04-15T11:43:12;3.15;;;2.10;;
67889;SDS011;54685;52.082;5.426;2023-04-15T11:45:51;2.30;;;1.95;;
67889;SDS011;54685;52.082;5.426;2023-04-15T11:48:19;5.78;;;2.20;;
67889;SDS011;54685;52.082;5.426;2023-04-15T11:50:57;5.07;;;2.42;;
67889;SDS011;54685;52.082;5.426;2023-04-15T11:53:48;35.10;;;3.13;;
67889;SDS011;54685;52.082;5.426;2023-04-15T11:56:20;32.08;;;2.70;;
67889;SDS011;54685;52.082;5.426;2023-04-15T11:58:51;4.78;;;2.30;;
67889;SDS011;54685;52.082;5.426;2023-04-15T12:01:33;4.60;;;1.90;;
67889;SDS011;54685;52.082;5.426;2023-04-15T12:04:01;3.92;;;2.17;;
67889;SDS011;54685;52.082;5.426;2023-04-15T12:06:37;9.38;;;2.53;;
67889;SDS011;54685;52.082;5.426;2023-04-15T12:09:22;12.18;;;3.20;;
67889;SDS011;54685;52.082;5.426;2023-04-15T12:11:50;5.03;;;2.17;;
67889;SDS011;54685;52.082;5.426;2023-04-15T12:14:24;10.13;;;2.67;;
67889;SDS011;54685;52.082;5.426;2023-04-15T12:19:26;6.43;;;2.33;;
67889;SDS011;54685;52.082;5.426;2023-04-15T12:22:01;2.10;;;1.75;;
67889;SDS011;54685;52.082;5.426;2023-04-15T12:24:32;5.55;;;1.85;;
67889;SDS011;54685;52.082;5.426;2023-04-15T12:27:02;3.03;;;1.40;;
67889;SDS011;54685;52.082;5.426;2023-04-15T12:29:33;2.28;;;1.30;;
67889;SDS011;54685;52.082;5.426;2023-04-15T12:32:05;5.03;;;1.35;;
67889;SDS011;54685;52.082;5.426;2023-04-15T12:34:39;2.10;;;1.35;;
67889;SDS011;54685;52.082;5.426;2023-04-15T12:37:09;6.50;;;1.40;;
67889;SDS011;54685;52.082;5.426;2023-04-15T12:39:39;2.30;;;1.40;;
67889;SDS011;54685;52.082;5.426;2023-04-15T12:42:07;2.58;;;1.45;;
67889;SDS011;54685;52.082;5.426;2023-04-15T12:44:34;3.55;;;1.70;;
67889;SDS011;54685;52.082;5.426;2023-04-15T12:47:02;4.30;;;1.40;;
67889;SDS011;54685;52.082;5.426;2023-04-15T12:49:29;1.85;;;1.40;;
67889;SDS011;54685;52.082;5.426;2023-04-15T12:51:58;2.70;;;1.58;;
67889;SDS011;54685;52.082;5.426;2023-04-15T12:54:26;5.32;;;1.67;;
67889;SDS011;54685;52.082;5.426;2023-04-15T12:56:54;6.80;;;1.70;;
67889;SDS011;54685;52.082;5.426;2023-04-15T12:59:21;3.08;;;1.55;;
67889;SDS011;54685;52.082;5.426;2023-04-15T13:01:49;4.28;;;1.50;;
67889;SDS011;54685;52.082;5.426;2023-04-15T13:04:18;2.90;;;1.48;;
67889;SDS011;54685;52.082;5.426;2023-04-15T13:06:45;3.58;;;1.67;;
67889;SDS011;54685;52.082;5.426;2023-04-15T13:09:13;3.13;;;1.50;;
67889;SDS011;54685;52.082;5.426;2023-04-15T13:11:40;3.47;;;1.50;;
67889;SDS011;54685;52.082;5.426;2023-04-15T13:14:08;3.60;;;1.67;;
67889;SDS011;54685;52.082;5.426;2023-04-15T13:16:39;5.10;;;1.45;;
67889;SDS011;54685;52.082;5.426;2023-04-15T13:19:06;7.38;;;1.90;;
67889;SDS011;54685;52.082;5.426;2023-04-15T13:21:33;4.25;;;1.70;;
67889;SDS011;54685;52.082;5.426;2023-04-15T13:24:01;3.10;;;1.58;;
67889;SDS011;54685;52.082;5.426;2023-04-15T13:26:29;2.40;;;1.30;;
67889;SDS011;54685;52.082;5.426;2023-04-15T13:28:57;2.45;;;1.48;;
67889;SDS011;54685;52.082;5.426;2023-04-15T13:31:24;6.53;;;1.63;;
67889;SDS011;54685;52.082;5.426;2023-04-15T13:33:51;3.05;;;1.50;;
67889;SDS011;54685;52.082;5.426;2023-04-15T13:36:18;5.43;;;1.40;;
67889;SDS011;54685;52.082;5.426;2023-04-15T13:38:46;3.00;;;1.48;;
67889;SDS011;54685;52.082;5.426;2023-04-15T13:41:16;2.28;;;1.13;;
67889;SDS011;54685;52.082;5.426;2023-04-15T13:43:44;3.33;;;1.25;;
67889;SDS011;54685;52.082;5.426;2023-04-15T13:46:10;4.93;;;1.33;;
67889;SDS011;54685;52.082;5.426;2023-04-15T13:48:38;7.47;;;1.52;;
67889;SDS011;54685;52.082;5.426;2023-04-15T13:51:05;5.90;;;1.40;;
67889;SDS011;54685;52.082;5.426;2023-04-15T13:53:34;2.67;;;1.20;;
67889;SDS011;54685;52.082;5.426;2023-04-15T13:56:07;4.82;;;1.05;;
67889;SDS011;54685;52.082;5.426;2023-04-15T13:58:36;4.97;;;1.43;;
67889;SDS011;54685;52.082;5.426;2023-04-15T14:01:03;1.30;;;1.00;;
67889;SDS011;54685;52.082;5.426;2023-04-15T14:03:33;1.58;;;1.05;;
67889;SDS011;54685;52.082;5.426;2023-04-15T14:06:02;4.47;;;1.77;;
67889;SDS011;54685;52.082;5.426;2023-04-15T14:08:29;3.25;;;1.13;;
67889;SDS011;54685;52.082;5.426;2023-04-15T14:10:57;2.92;;;1.20;;
67889;SDS011;54685;52.082;5.426;2023-04-15T14:13:24;1.08;;;0.90;;
67889;SDS011;54685;52.082;5.426;2023-04-15T14:15:51;2.78;;;1.00;;
67889;SDS011;54685;52.082;5.426;2023-04-15T14:18:18;2.78;;;0.93;;
67889;SDS011;54685;52.082;5.426;2023-04-15T14:20:45;3.72;;;0.90;;
67889;SDS011;54685;52.082;5.426;2023-04-15T14:23:12;1.65;;;1.00;;
67889;SDS011;54685;52.082;5.426;2023-04-15T14:25:39;3.95;;;1.10;;
67889;SDS011;54685;52.082;5.426;2023-04-15T14:28:06;3.75;;;1.08;;
67889;SDS011;54685;52.082;5.426;2023-04-15T14:30:33;4.82;;;1.45;;
67889;SDS011;54685;52.082;5.426;2023-04-15T14:33:00;5.32;;;1.70;;
67889;SDS011;54685;52.082;5.426;2023-04-15T14:35:27;6.43;;;1.73;;
67889;SDS011;54685;52.082;5.426;2023-04-15T14:37:54;5.60;;;1.63;;
67889;SDS011;54685;52.082;5.426;2023-04-15T14:40:22;6.47;;;1.70;;
67889;SDS011;54685;52.082;5.426;2023-04-15T14:42:49;8.40;;;2.50;;
67889;SDS011;54685;52.082;5.426;2023-04-15T14:45:17;7.55;;;2.03;;
67889;SDS011;54685;52.082;5.426;2023-04-15T14:47:44;4.40;;;1.73;;
67889;SDS011;54685;52.082;5.426;2023-04-15T14:50:11;4.40;;;1.30;;
67889;SDS011;54685;52.082;5.426;2023-04-15T14:52:38;5.97;;;1.50;;
67889;SDS011;54685;52.082;5.426;2023-04-15T14:55:07;7.47;;;1.40;;
67889;SDS011;54685;52.082;5.426;2023-04-15T14:57:39;4.93;;;1.02;;
67889;SDS011;54685;52.082;5.426;2023-04-15T15:00:08;2.85;;;1.00;;
67889;SDS011;54685;52.082;5.426;2023-04-15T15:02:39;1.88;;;0.95;;
67889;SDS011;54685;52.082;5.426;2023-04-15T15:05:08;3.85;;;1.35;;
67889;SDS011;54685;52.082;5.426;2023-04-15T15:07:36;5.50;;;1.10;;
67889;SDS011;54685;52.082;5.426;2023-04-15T15:10:04;7.18;;;1.30;;
67889;SDS011;54685;52.082;5.426;2023-04-15T15:12:32;6.25;;;1.20;;